Portada
METAR-TAF:

METAR-TAF

Aeropuertos :

Bou Saâda, Argelia

latitud: 35-20N, longitud: 004-12E, altitud: 461 m

Observación

El informe se hizo hace 1 hora y 15 minutos, a las 08:00 UTC
Viento calma
Temperatura 16°C
Humedad 39%
Presión 1019 hPa
Visibilidad 10 km o más
sin nubes por debajo de 1500 m y sin presencia de cumulonimbus.

METAR: DAAD 240800Z 00000KT CAVOK 16/02 Q1019

Hora: 10:15 (09:15 UTC)

Pronóstico

El informe se hizo hace 1 hora y 15 minutos, a las 08:00 UTC
Pronóstico válido del 24 a las 09 UTC al 24 a las 18 UTC
Viento 2 kt con dirección variable
Visibilidad 10 km o más
sin nubes por debajo de 1500 m y sin presencia de cumulonimbus.

TAF: DAAD 240800Z 2409/2418 VRB02KT CAVOK

Observaciones y pronósticos meteorológicos de más de 4000 aeropuertos (mensajes METAR y TAF).

Los puntos amarillos y rojos representan las estaciones disponibles.

Ponga el ratón en el punto deseado para ver el nombre de la estación.

Haga clic para ver las observaciones y los pronósticos meteorológicos.

Para cambiar el mapa : haga clic en los botones verdes con una cruz de color negro para hacer un zoom, en el botón verde con un guión para alejar o en las flechas verdes para mapas adyacentes.


METAR-TAF: